sensor_id;sensor_type;location;lat;lon;timestamp;P1;durP1;ratioP1;P2;durP2;ratioP2
23362;SDS011;11853;48.080;11.960;2023-07-13T00:00:27;2.45;;;2.25;;
23362;SDS011;11853;48.080;11.960;2023-07-13T00:02:53;2.90;;;2.60;;
23362;SDS011;11853;48.080;11.960;2023-07-13T00:05:19;2.95;;;2.67;;
23362;SDS011;11853;48.080;11.960;2023-07-13T00:07:46;2.90;;;2.55;;
23362;SDS011;11853;48.080;11.960;2023-07-13T00:10:12;2.70;;;2.50;;
23362;SDS011;11853;48.080;11.960;2023-07-13T00:12:38;2.78;;;2.50;;
23362;SDS011;11853;48.080;11.960;2023-07-13T00:15:05;2.58;;;2.05;;
23362;SDS011;11853;48.080;11.960;2023-07-13T00:17:53;2.50;;;2.30;;
23362;SDS011;11853;48.080;11.960;2023-07-13T00:20:23;3.22;;;2.20;;
23362;SDS011;11853;48.080;11.960;2023-07-13T00:22:52;3.30;;;2.20;;
23362;SDS011;11853;48.080;11.960;2023-07-13T00:25:19;2.45;;;2.08;;
23362;SDS011;11853;48.080;11.960;2023-07-13T00:27:46;4.30;;;2.80;;
23362;SDS011;11853;48.080;11.960;2023-07-13T00:30:16;2.90;;;2.00;;
23362;SDS011;11853;48.080;11.960;2023-07-13T00:32:42;3.00;;;2.63;;
23362;SDS011;11853;48.080;11.960;2023-07-13T00:35:08;2.70;;;2.28;;
23362;SDS011;11853;48.080;11.960;2023-07-13T00:37:34;2.80;;;2.45;;
23362;SDS011;11853;48.080;11.960;2023-07-13T00:40:01;2.35;;;1.92;;
23362;SDS011;11853;48.080;11.960;2023-07-13T00:42:28;2.75;;;2.33;;
23362;SDS011;11853;48.080;11.960;2023-07-13T00:47:39;2.65;;;2.45;;
23362;SDS011;11853;48.080;11.960;2023-07-13T00:50:08;2.60;;;2.20;;
23362;SDS011;11853;48.080;11.960;2023-07-13T00:52:37;4.10;;;2.40;;
23362;SDS011;11853;48.080;11.960;2023-07-13T00:55:07;3.78;;;2.45;;
23362;SDS011;11853;48.080;11.960;2023-07-13T00:57:34;2.58;;;2.20;;
23362;SDS011;11853;48.080;11.960;2023-07-13T01:00:01;2.90;;;2.20;;
23362;SDS011;11853;48.080;11.960;2023-07-13T01:02:31;2.67;;;2.25;;
23362;SDS011;11853;48.080;11.960;2023-07-13T01:04:58;2.88;;;2.03;;
23362;SDS011;11853;48.080;11.960;2023-07-13T01:07:24;3.53;;;2.35;;
23362;SDS011;11853;48.080;11.960;2023-07-13T01:09:50;2.58;;;2.33;;
23362;SDS011;11853;48.080;11.960;2023-07-13T01:12:16;2.85;;;2.55;;
23362;SDS011;11853;48.080;11.960;2023-07-13T01:14:42;2.58;;;2.13;;
23362;SDS011;11853;48.080;11.960;2023-07-13T01:17:10;2.28;;;2.08;;
23362;SDS011;11853;48.080;11.960;2023-07-13T01:19:38;2.60;;;2.40;;
23362;SDS011;11853;48.080;11.960;2023-07-13T01:24:36;3.50;;;2.20;;
23362;SDS011;11853;48.080;11.960;2023-07-13T01:27:04;2.50;;;2.13;;
23362;SDS011;11853;48.080;11.960;2023-07-13T01:29:31;3.10;;;2.20;;
23362;SDS011;11853;48.080;11.960;2023-07-13T01:31:58;4.18;;;2.08;;
23362;SDS011;11853;48.080;11.960;2023-07-13T01:34:25;3.67;;;2.78;;
23362;SDS011;11853;48.080;11.960;2023-07-13T01:36:52;2.38;;;2.17;;
23362;SDS011;11853;48.080;11.960;2023-07-13T01:39:20;4.18;;;2.60;;
23362;SDS011;11853;48.080;11.960;2023-07-13T01:41:46;4.40;;;2.40;;
23362;SDS011;11853;48.080;11.960;2023-07-13T01:44:12;3.38;;;2.38;;
23362;SDS011;11853;48.080;11.960;2023-07-13T01:46:37;4.03;;;2.33;;
23362;SDS011;11853;48.080;11.960;2023-07-13T01:49:03;2.75;;;2.05;;
23362;SDS011;11853;48.080;11.960;2023-07-13T01:51:29;2.50;;;2.30;;
23362;SDS011;11853;48.080;11.960;2023-07-13T01:53:55;2.85;;;2.53;;
23362;SDS011;11853;48.080;11.960;2023-07-13T01:56:20;2.47;;;2.25;;
23362;SDS011;11853;48.080;11.960;2023-07-13T01:58:46;2.65;;;2.30;;
23362;SDS011;11853;48.080;11.960;2023-07-13T02:01:12;4.95;;;2.38;;
23362;SDS011;11853;48.080;11.960;2023-07-13T02:03:37;3.15;;;2.45;;
23362;SDS011;11853;48.080;11.960;2023-07-13T02:06:03;2.15;;;2.00;;
23362;SDS011;11853;48.080;11.960;2023-07-13T02:08:28;2.67;;;2.15;;
23362;SDS011;11853;48.080;11.960;2023-07-13T02:10:54;2.78;;;2.17;;
23362;SDS011;11853;48.080;11.960;2023-07-13T02:13:20;4.78;;;2.10;;
23362;SDS011;11853;48.080;11.960;2023-07-13T02:15:45;3.85;;;2.22;;
23362;SDS011;11853;48.080;11.960;2023-07-13T02:18:10;3.38;;;2.33;;
23362;SDS011;11853;48.080;11.960;2023-07-13T02:20:37;3.42;;;2.15;;
23362;SDS011;11853;48.080;11.960;2023-07-13T02:23:03;3.08;;;2.78;;
23362;SDS011;11853;48.080;11.960;2023-07-13T02:25:28;2.58;;;2.20;;
23362;SDS011;11853;48.080;11.960;2023-07-13T02:27:54;3.80;;;2.53;;
23362;SDS011;11853;48.080;11.960;2023-07-13T02:30:19;3.40;;;2.25;;
23362;SDS011;11853;48.080;11.960;2023-07-13T02:32:45;3.28;;;2.20;;
23362;SDS011;11853;48.080;11.960;2023-07-13T02:35:10;2.42;;;2.17;;
23362;SDS011;11853;48.080;11.960;2023-07-13T02:37:36;2.35;;;2.15;;
23362;SDS011;11853;48.080;11.960;2023-07-13T02:40:07;3.33;;;1.85;;
23362;SDS011;11853;48.080;11.960;2023-07-13T02:42:34;4.13;;;2.20;;
23362;SDS011;11853;48.080;11.960;2023-07-13T02:45:00;5.35;;;1.98;;
23362;SDS011;11853;48.080;11.960;2023-07-13T02:47:25;3.75;;;2.42;;
23362;SDS011;11853;48.080;11.960;2023-07-13T02:49:51;2.17;;;2.03;;
23362;SDS011;11853;48.080;11.960;2023-07-13T02:52:17;2.83;;;2.08;;
23362;SDS011;11853;48.080;11.960;2023-07-13T02:54:43;3.30;;;2.40;;
23362;SDS011;11853;48.080;11.960;2023-07-13T02:57:08;2.60;;;2.22;;
23362;SDS011;11853;48.080;11.960;2023-07-13T02:59:34;3.85;;;2.30;;
23362;SDS011;11853;48.080;11.960;2023-07-13T03:02:00;4.80;;;2.13;;
23362;SDS011;11853;48.080;11.960;2023-07-13T03:04:27;2.17;;;1.90;;
23362;SDS011;11853;48.080;11.960;2023-07-13T03:06:52;2.75;;;2.13;;
23362;SDS011;11853;48.080;11.960;2023-07-13T03:09:18;2.72;;;2.30;;
23362;SDS011;11853;48.080;11.960;2023-07-13T03:11:43;2.72;;;2.30;;
23362;SDS011;11853;48.080;11.960;2023-07-13T03:14:09;2.28;;;2.08;;
23362;SDS011;11853;48.080;11.960;2023-07-13T03:16:34;3.90;;;2.40;;
23362;SDS011;11853;48.080;11.960;2023-07-13T03:19:00;2.58;;;1.98;;
23362;SDS011;11853;48.080;11.960;2023-07-13T03:24:34;3.42;;;1.92;;
23362;SDS011;11853;48.080;11.960;2023-07-13T03:27:03;2.85;;;2.17;;
23362;SDS011;11853;48.080;11.960;2023-07-13T03:29:30;1.90;;;1.80;;
23362;SDS011;11853;48.080;11.960;2023-07-13T03:31:55;3.47;;;2.25;;
23362;SDS011;11853;48.080;11.960;2023-07-13T03:34:21;2.40;;;2.20;;
23362;SDS011;11853;48.080;11.960;2023-07-13T03:40:09;2.97;;;2.22;;
23362;SDS011;11853;48.080;11.960;2023-07-13T03:42:35;3.28;;;1.90;;
23362;SDS011;11853;48.080;11.960;2023-07-13T03:45:01;3.88;;;3.05;;
23362;SDS011;11853;48.080;11.960;2023-07-13T03:47:27;3.13;;;2.60;;
23362;SDS011;11853;48.080;11.960;2023-07-13T03:49:52;5.50;;;2.72;;
23362;SDS011;11853;48.080;11.960;2023-07-13T03:52:18;5.13;;;2.58;;
23362;SDS011;11853;48.080;11.960;2023-07-13T03:54:44;4.22;;;2.67;;
23362;SDS011;11853;48.080;11.960;2023-07-13T03:57:10;3.40;;;2.42;;
23362;SDS011;11853;48.080;11.960;2023-07-13T03:59:36;3.40;;;3.03;;
23362;SDS011;11853;48.080;11.960;2023-07-13T04:02:01;4.60;;;2.90;;
23362;SDS011;11853;48.080;11.960;2023-07-13T04:04:29;3.80;;;2.83;;
23362;SDS011;11853;48.080;11.960;2023-07-13T04:06:56;5.03;;;2.85;;
23362;SDS011;11853;48.080;11.960;2023-07-13T04:09:23;3.30;;;2.60;;
23362;SDS011;11853;48.080;11.960;2023-07-13T04:11:49;3.10;;;2.80;;
23362;SDS011;11853;48.080;11.960;2023-07-13T04:14:15;3.30;;;3.00;;
23362;SDS011;11853;48.080;11.960;2023-07-13T04:16:41;5.88;;;3.35;;
23362;SDS011;11853;48.080;11.960;2023-07-13T04:19:08;5.45;;;2.92;;
23362;SDS011;11853;48.080;11.960;2023-07-13T04:21:35;3.85;;;2.90;;
23362;SDS011;11853;48.080;11.960;2023-07-13T04:24:01;5.60;;;3.45;;
23362;SDS011;11853;48.080;11.960;2023-07-13T04:26:28;4.35;;;3.05;;
23362;SDS011;11853;48.080;11.960;2023-07-13T04:28:54;3.00;;;2.80;;
23362;SDS011;11853;48.080;11.960;2023-07-13T04:31:20;5.38;;;2.75;;
23362;SDS011;11853;48.080;11.960;2023-07-13T04:33:46;2.97;;;2.60;;
23362;SDS011;11853;48.080;11.960;2023-07-13T04:36:13;3.40;;;2.80;;
23362;SDS011;11853;48.080;11.960;2023-07-13T04:38:39;3.55;;;3.03;;
23362;SDS011;11853;48.080;11.960;2023-07-13T04:41:07;4.47;;;2.83;;
23362;SDS011;11853;48.080;11.960;2023-07-13T04:43:33;5.15;;;3.28;;
23362;SDS011;11853;48.080;11.960;2023-07-13T04:46:10;3.55;;;2.88;;
23362;SDS011;11853;48.080;11.960;2023-07-13T04:48:37;4.32;;;2.60;;
23362;SDS011;11853;48.080;11.960;2023-07-13T04:51:03;4.20;;;2.80;;
23362;SDS011;11853;48.080;11.960;2023-07-13T04:53:30;4.20;;;3.08;;
23362;SDS011;11853;48.080;11.960;2023-07-13T04:55:57;6.53;;;3.58;;
23362;SDS011;11853;48.080;11.960;2023-07-13T04:58:24;4.05;;;2.67;;
23362;SDS011;11853;48.080;11.960;2023-07-13T05:00:50;2.92;;;2.60;;
23362;SDS011;11853;48.080;11.960;2023-07-13T05:03:16;3.95;;;3.10;;
23362;SDS011;11853;48.080;11.960;2023-07-13T05:05:42;5.35;;;3.10;;
23362;SDS011;11853;48.080;11.960;2023-07-13T05:08:07;5.43;;;2.88;;
23362;SDS011;11853;48.080;11.960;2023-07-13T05:10:33;3.47;;;2.97;;
23362;SDS011;11853;48.080;11.960;2023-07-13T05:13:00;3.10;;;2.80;;
23362;SDS011;11853;48.080;11.960;2023-07-13T05:15:26;4.65;;;3.35;;
23362;SDS011;11853;48.080;11.960;2023-07-13T05:17:52;4.72;;;3.08;;
23362;SDS011;11853;48.080;11.960;2023-07-13T05:20:18;4.68;;;2.78;;
23362;SDS011;11853;48.080;11.960;2023-07-13T05:22:44;4.03;;;3.03;;
23362;SDS011;11853;48.080;11.960;2023-07-13T05:25:12;3.83;;;2.97;;
23362;SDS011;11853;48.080;11.960;2023-07-13T05:27:38;5.38;;;3.05;;
23362;SDS011;11853;48.080;11.960;2023-07-13T05:30:04;3.72;;;2.60;;
23362;SDS011;11853;48.080;11.960;2023-07-13T05:32:31;4.82;;;3.10;;
23362;SDS011;11853;48.080;11.960;2023-07-13T05:34:56;3.92;;;2.80;;
23362;SDS011;11853;48.080;11.960;2023-07-13T05:37:22;4.57;;;2.90;;
23362;SDS011;11853;48.080;11.960;2023-07-13T05:39:48;3.13;;;2.58;;
23362;SDS011;11853;48.080;11.960;2023-07-13T05:42:14;3.35;;;2.60;;
23362;SDS011;11853;48.080;11.960;2023-07-13T05:44:40;3.05;;;2.70;;
23362;SDS011;11853;48.080;11.960;2023-07-13T05:47:06;3.25;;;2.78;;
23362;SDS011;11853;48.080;11.960;2023-07-13T05:49:31;2.78;;;2.53;;
23362;SDS011;11853;48.080;11.960;2023-07-13T05:51:57;3.78;;;2.60;;
23362;SDS011;11853;48.080;11.960;2023-07-13T05:54:23;4.10;;;2.65;;
23362;SDS011;11853;48.080;11.960;2023-07-13T05:56:48;3.72;;;2.70;;
23362;SDS011;11853;48.080;11.960;2023-07-13T05:59:14;4.65;;;2.55;;
23362;SDS011;11853;48.080;11.960;2023-07-13T06:01:40;3.00;;;2.30;;
23362;SDS011;11853;48.080;11.960;2023-07-13T06:04:06;3.70;;;2.80;;
23362;SDS011;11853;48.080;11.960;2023-07-13T06:06:32;3.38;;;2.83;;
23362;SDS011;11853;48.080;11.960;2023-07-13T06:08:58;3.05;;;2.75;;
23362;SDS011;11853;48.080;11.960;2023-07-13T06:11:24;4.88;;;2.72;;
23362;SDS011;11853;48.080;11.960;2023-07-13T06:13:52;5.13;;;2.50;;
23362;SDS011;11853;48.080;11.960;2023-07-13T06:16:19;2.97;;;2.40;;
23362;SDS011;11853;48.080;11.960;2023-07-13T06:18:45;6.10;;;3.03;;
23362;SDS011;11853;48.080;11.960;2023-07-13T06:21:12;2.70;;;2.33;;
23362;SDS011;11853;48.080;11.960;2023-07-13T06:23:39;6.60;;;2.88;;
23362;SDS011;11853;48.080;11.960;2023-07-13T06:26:06;2.65;;;2.45;;
23362;SDS011;11853;48.080;11.960;2023-07-13T06:28:32;4.50;;;2.33;;
23362;SDS011;11853;48.080;11.960;2023-07-13T06:30:59;3.63;;;2.20;;
23362;SDS011;11853;48.080;11.960;2023-07-13T06:33:25;3.33;;;2.65;;
23362;SDS011;11853;48.080;11.960;2023-07-13T06:35:51;6.45;;;2.75;;
23362;SDS011;11853;48.080;11.960;2023-07-13T06:38:17;12.43;;;3.80;;
23362;SDS011;11853;48.080;11.960;2023-07-13T06:40:43;7.75;;;2.83;;
23362;SDS011;11853;48.080;11.960;2023-07-13T06:43:08;6.55;;;2.88;;
23362;SDS011;11853;48.080;11.960;2023-07-13T06:45:44;18.00;;;4.00;;
23362;SDS011;11853;48.080;11.960;2023-07-13T06:48:13;11.60;;;3.85;;
23362;SDS011;11853;48.080;11.960;2023-07-13T06:50:39;5.40;;;2.80;;
23362;SDS011;11853;48.080;11.960;2023-07-13T06:53:05;3.33;;;2.42;;
23362;SDS011;11853;48.080;11.960;2023-07-13T06:55:30;4.03;;;2.45;;
23362;SDS011;11853;48.080;11.960;2023-07-13T06:57:56;5.95;;;2.83;;
23362;SDS011;11853;48.080;11.960;2023-07-13T07:00:23;4.78;;;2.55;;
23362;SDS011;11853;48.080;11.960;2023-07-13T07:02:48;2.70;;;2.50;;
23362;SDS011;11853;48.080;11.960;2023-07-13T07:05:14;3.78;;;2.78;;
23362;SDS011;11853;48.080;11.960;2023-07-13T07:07:40;2.25;;;2.08;;
23362;SDS011;11853;48.080;11.960;2023-07-13T07:10:06;3.72;;;2.33;;
23362;SDS011;11853;48.080;11.960;2023-07-13T07:12:32;3.65;;;2.28;;
23362;SDS011;11853;48.080;11.960;2023-07-13T07:14:58;3.33;;;2.60;;
23362;SDS011;11853;48.080;11.960;2023-07-13T07:17:23;2.97;;;2.50;;
23362;SDS011;11853;48.080;11.960;2023-07-13T07:19:50;3.65;;;2.50;;
23362;SDS011;11853;48.080;11.960;2023-07-13T07:22:16;3.53;;;2.58;;
23362;SDS011;11853;48.080;11.960;2023-07-13T07:24:41;3.65;;;2.45;;
23362;SDS011;11853;48.080;11.960;2023-07-13T07:27:07;4.10;;;2.47;;
23362;SDS011;11853;48.080;11.960;2023-07-13T07:29:33;2.35;;;2.15;;
23362;SDS011;11853;48.080;11.960;2023-07-13T07:31:59;3.10;;;2.88;;
23362;SDS011;11853;48.080;11.960;2023-07-13T07:34:25;3.60;;;2.70;;
23362;SDS011;11853;48.080;11.960;2023-07-13T07:36:51;3.05;;;2.75;;
23362;SDS011;11853;48.080;11.960;2023-07-13T07:39:16;5.32;;;2.60;;
23362;SDS011;11853;48.080;11.960;2023-07-13T07:41:42;2.78;;;2.20;;
23362;SDS011;11853;48.080;11.960;2023-07-13T07:44:08;2.75;;;1.90;;
23362;SDS011;11853;48.080;11.960;2023-07-13T07:46:35;3.67;;;2.45;;
23362;SDS011;11853;48.080;11.960;2023-07-13T07:49:01;3.20;;;2.60;;
23362;SDS011;11853;48.080;11.960;2023-07-13T07:51:27;2.47;;;2.28;;
23362;SDS011;11853;48.080;11.960;2023-07-13T07:53:53;2.95;;;2.50;;
23362;SDS011;11853;48.080;11.960;2023-07-13T07:56:19;3.65;;;2.90;;
23362;SDS011;11853;48.080;11.960;2023-07-13T07:58:45;3.50;;;2.47;;
23362;SDS011;11853;48.080;11.960;2023-07-13T08:01:10;3.95;;;3.20;;
23362;SDS011;11853;48.080;11.960;2023-07-13T08:03:36;3.55;;;2.40;;
23362;SDS011;11853;48.080;11.960;2023-07-13T08:06:02;2.78;;;2.55;;
23362;SDS011;11853;48.080;11.960;2023-07-13T08:08:28;3.47;;;2.20;;
23362;SDS011;11853;48.080;11.960;2023-07-13T08:10:53;4.28;;;2.90;;
23362;SDS011;11853;48.080;11.960;2023-07-13T08:13:19;5.18;;;2.40;;
23362;SDS011;11853;48.080;11.960;2023-07-13T08:15:45;4.07;;;2.53;;
23362;SDS011;11853;48.080;11.960;2023-07-13T08:18:12;4.07;;;2.63;;
23362;SDS011;11853;48.080;11.960;2023-07-13T08:20:38;3.65;;;2.40;;
23362;SDS011;11853;48.080;11.960;2023-07-13T08:23:04;3.42;;;2.42;;
23362;SDS011;11853;48.080;11.960;2023-07-13T08:25:30;3.00;;;2.45;;
23362;SDS011;11853;48.080;11.960;2023-07-13T08:27:56;4.03;;;2.90;;
23362;SDS011;11853;48.080;11.960;2023-07-13T08:30:22;2.55;;;2.35;;
23362;SDS011;11853;48.080;11.960;2023-07-13T08:32:48;2.80;;;2.40;;
23362;SDS011;11853;48.080;11.960;2023-07-13T08:35:14;3.75;;;2.50;;
23362;SDS011;11853;48.080;11.960;2023-07-13T08:37:41;6.05;;;2.90;;
23362;SDS011;11853;48.080;11.960;2023-07-13T08:40:08;3.80;;;2.55;;
23362;SDS011;11853;48.080;11.960;2023-07-13T08:42:45;3.35;;;2.42;;
23362;SDS011;11853;48.080;11.960;2023-07-13T08:45:23;4.78;;;3.17;;
23362;SDS011;11853;48.080;11.960;2023-07-13T08:47:55;2.97;;;2.50;;
23362;SDS011;11853;48.080;11.960;2023-07-13T08:50:30;3.05;;;2.65;;
23362;SDS011;11853;48.080;11.960;2023-07-13T08:53:01;4.05;;;3.05;;
23362;SDS011;11853;48.080;11.960;2023-07-13T08:55:30;5.72;;;3.22;;
23362;SDS011;11853;48.080;11.960;2023-07-13T08:58:03;3.08;;;2.33;;
23362;SDS011;11853;48.080;11.960;2023-07-13T09:00:43;5.88;;;3.15;;
23362;SDS011;11853;48.080;11.960;2023-07-13T09:03:23;3.65;;;3.30;;
23362;SDS011;11853;48.080;11.960;2023-07-13T09:05:54;5.38;;;3.13;;
23362;SDS011;11853;48.080;11.960;2023-07-13T09:11:59;3.40;;;2.53;;
23362;SDS011;11853;48.080;11.960;2023-07-13T09:14:31;3.00;;;2.80;;
23362;SDS011;11853;48.080;11.960;2023-07-13T09:17:04;4.07;;;2.92;;
23362;SDS011;11853;48.080;11.960;2023-07-13T09:19:36;4.85;;;3.40;;
23362;SDS011;11853;48.080;11.960;2023-07-13T09:22:02;4.72;;;3.15;;
23362;SDS011;11853;48.080;11.960;2023-07-13T09:24:41;4.20;;;2.88;;
23362;SDS011;11853;48.080;11.960;2023-07-13T09:27:22;3.53;;;2.78;;
23362;SDS011;11853;48.080;11.960;2023-07-13T09:29:56;3.92;;;2.58;;
23362;SDS011;11853;48.080;11.960;2023-07-13T09:32:27;6.00;;;2.78;;
23362;SDS011;11853;48.080;11.960;2023-07-13T09:34:55;7.38;;;3.38;;
23362;SDS011;11853;48.080;11.960;2023-07-13T09:37:22;3.92;;;2.60;;
23362;SDS011;11853;48.080;11.960;2023-07-13T09:39:53;6.70;;;3.30;;
23362;SDS011;11853;48.080;11.960;2023-07-13T09:42:21;5.00;;;2.90;;
23362;SDS011;11853;48.080;11.960;2023-07-13T09:47:22;4.95;;;3.13;;
23362;SDS011;11853;48.080;11.960;2023-07-13T09:50:06;3.40;;;2.65;;
23362;SDS011;11853;48.080;11.960;2023-07-13T09:52:41;3.80;;;3.22;;
23362;SDS011;11853;48.080;11.960;2023-07-13T09:55:31;5.55;;;3.03;;
23362;SDS011;11853;48.080;11.960;2023-07-13T09:58:19;4.25;;;2.88;;
23362;SDS011;11853;48.080;11.960;2023-07-13T10:00:58;5.35;;;2.90;;
23362;SDS011;11853;48.080;11.960;2023-07-13T10:03:31;6.40;;;3.00;;
23362;SDS011;11853;48.080;11.960;2023-07-13T10:06:16;3.88;;;2.72;;
23362;SDS011;11853;48.080;11.960;2023-07-13T10:08:44;2.83;;;2.63;;
23362;SDS011;11853;48.080;11.960;2023-07-13T10:11:14;5.15;;;2.60;;
23362;SDS011;11853;48.080;11.960;2023-07-13T10:16:26;3.97;;;2.72;;
23362;SDS011;11853;48.080;11.960;2023-07-13T10:19:00;3.63;;;2.38;;
23362;SDS011;11853;48.080;11.960;2023-07-13T10:21:38;5.50;;;3.03;;
23362;SDS011;11853;48.080;11.960;2023-07-13T10:24:13;4.10;;;2.67;;
23362;SDS011;11853;48.080;11.960;2023-07-13T10:26:48;2.65;;;2.40;;
23362;SDS011;11853;48.080;11.960;2023-07-13T10:29:38;5.13;;;2.45;;
23362;SDS011;11853;48.080;11.960;2023-07-13T10:32:09;2.70;;;2.50;;
23362;SDS011;11853;48.080;11.960;2023-07-13T10:34:37;2.65;;;2.20;;
23362;SDS011;11853;48.080;11.960;2023-07-13T10:37:03;4.82;;;2.47;;
23362;SDS011;11853;48.080;11.960;2023-07-13T10:39:33;4.13;;;2.28;;
23362;SDS011;11853;48.080;11.960;2023-07-13T10:42:02;4.43;;;2.50;;
23362;SDS011;11853;48.080;11.960;2023-07-13T10:44:32;5.88;;;2.92;;
23362;SDS011;11853;48.080;11.960;2023-07-13T10:47:00;3.33;;;3.03;;
23362;SDS011;11853;48.080;11.960;2023-07-13T10:49:29;5.10;;;3.00;;
23362;SDS011;11853;48.080;11.960;2023-07-13T10:51:57;3.67;;;2.80;;
23362;SDS011;11853;48.080;11.960;2023-07-13T10:57:20;4.47;;;2.78;;
23362;SDS011;11853;48.080;11.960;2023-07-13T11:00:32;4.55;;;3.03;;
23362;SDS011;11853;48.080;11.960;2023-07-13T11:02:41;3.58;;;2.67;;
23362;SDS011;11853;48.080;11.960;2023-07-13T11:05:31;2.88;;;2.58;;
23362;SDS011;11853;48.080;11.960;2023-07-13T11:08:13;3.08;;;2.63;;
23362;SDS011;11853;48.080;11.960;2023-07-13T11:13:35;4.15;;;2.72;;
23362;SDS011;11853;48.080;11.960;2023-07-13T11:18:46;3.88;;;2.50;;
23362;SDS011;11853;48.080;11.960;2023-07-13T11:21:15;3.03;;;2.20;;
23362;SDS011;11853;48.080;11.960;2023-07-13T11:23:51;4.00;;;2.38;;
23362;SDS011;11853;48.080;11.960;2023-07-13T11:29:24;2.08;;;1.70;;
23362;SDS011;11853;48.080;11.960;2023-07-13T11:31:52;3.78;;;2.35;;
23362;SDS011;11853;48.080;11.960;2023-07-13T11:34:31;3.65;;;2.13;;
23362;SDS011;11853;48.080;11.960;2023-07-13T11:37:01;5.55;;;2.40;;
23362;SDS011;11853;48.080;11.960;2023-07-13T11:39:29;5.53;;;2.03;;
23362;SDS011;11853;48.080;11.960;2023-07-13T11:42:01;3.15;;;2.13;;
23362;SDS011;11853;48.080;11.960;2023-07-13T11:44:33;3.90;;;2.45;;
23362;SDS011;11853;48.080;11.960;2023-07-13T11:47:00;3.33;;;2.22;;
23362;SDS011;11853;48.080;11.960;2023-07-13T11:49:43;3.10;;;2.28;;
23362;SDS011;11853;48.080;11.960;2023-07-13T11:52:19;3.50;;;1.80;;
23362;SDS011;11853;48.080;11.960;2023-07-13T11:54:55;2.08;;;1.77;;
23362;SDS011;11853;48.080;11.960;2023-07-13T11:57:32;5.10;;;2.35;;
23362;SDS011;11853;48.080;11.960;2023-07-13T12:00:02;3.42;;;1.90;;
23362;SDS011;11853;48.080;11.960;2023-07-13T12:02:36;1.90;;;1.75;;
23362;SDS011;11853;48.080;11.960;2023-07-13T12:05:08;3.40;;;1.98;;
23362;SDS011;11853;48.080;11.960;2023-07-13T12:07:37;2.95;;;1.92;;
23362;SDS011;11853;48.080;11.960;2023-07-13T12:10:20;3.15;;;2.28;;
23362;SDS011;11853;48.080;11.960;2023-07-13T12:13:00;3.08;;;2.22;;
23362;SDS011;11853;48.080;11.960;2023-07-13T12:15:49;5.47;;;1.98;;
23362;SDS011;11853;48.080;11.960;2023-07-13T12:18:21;3.30;;;2.13;;
23362;SDS011;11853;48.080;11.960;2023-07-13T12:20:49;5.25;;;2.10;;
23362;SDS011;11853;48.080;11.960;2023-07-13T12:23:23;3.78;;;2.50;;
23362;SDS011;11853;48.080;11.960;2023-07-13T12:25:50;3.80;;;2.10;;
23362;SDS011;11853;48.080;11.960;2023-07-13T12:28:36;2.55;;;1.77;;
23362;SDS011;11853;48.080;11.960;2023-07-13T12:31:05;3.78;;;2.50;;
23362;SDS011;11853;48.080;11.960;2023-07-13T12:33:32;3.88;;;2.25;;
23362;SDS011;11853;48.080;11.960;2023-07-13T12:36:03;3.33;;;2.20;;
23362;SDS011;11853;48.080;11.960;2023-07-13T12:38:31;2.05;;;1.90;;
23362;SDS011;11853;48.080;11.960;2023-07-13T12:40:57;7.07;;;2.65;;
23362;SDS011;11853;48.080;11.960;2023-07-13T12:43:24;4.95;;;2.15;;
23362;SDS011;11853;48.080;11.960;2023-07-13T12:45:59;3.70;;;2.22;;
23362;SDS011;11853;48.080;11.960;2023-07-13T12:48:30;5.50;;;2.47;;
23362;SDS011;11853;48.080;11.960;2023-07-13T12:51:08;3.42;;;2.25;;
23362;SDS011;11853;48.080;11.960;2023-07-13T12:53:38;3.45;;;1.90;;
23362;SDS011;11853;48.080;11.960;2023-07-13T12:56:08;5.88;;;1.65;;
23362;SDS011;11853;48.080;11.960;2023-07-13T12:58:45;2.90;;;2.00;;
23362;SDS011;11853;48.080;11.960;2023-07-13T13:01:14;4.05;;;2.20;;
23362;SDS011;11853;48.080;11.960;2023-07-13T13:03:40;4.30;;;2.38;;
23362;SDS011;11853;48.080;11.960;2023-07-13T13:08:48;2.17;;;1.83;;
23362;SDS011;11853;48.080;11.960;2023-07-13T13:11:16;2.63;;;2.20;;
23362;SDS011;11853;48.080;11.960;2023-07-13T13:13:43;1.92;;;1.50;;
23362;SDS011;11853;48.080;11.960;2023-07-13T13:16:22;3.28;;;2.17;;
23362;SDS011;11853;48.080;11.960;2023-07-13T13:18:50;3.50;;;2.28;;
23362;SDS011;11853;48.080;11.960;2023-07-13T13:21:17;2.85;;;2.00;;
23362;SDS011;11853;48.080;11.960;2023-07-13T13:23:43;2.80;;;1.88;;
23362;SDS011;11853;48.080;11.960;2023-07-13T13:26:13;3.25;;;1.85;;
23362;SDS011;11853;48.080;11.960;2023-07-13T13:28:43;3.40;;;2.60;;
23362;SDS011;11853;48.080;11.960;2023-07-13T13:31:09;1.90;;;1.80;;
23362;SDS011;11853;48.080;11.960;2023-07-13T13:33:43;1.98;;;1.80;;
23362;SDS011;11853;48.080;11.960;2023-07-13T13:38:52;3.67;;;2.05;;
23362;SDS011;11853;48.080;11.960;2023-07-13T13:41:17;2.17;;;1.98;;
23362;SDS011;11853;48.080;11.960;2023-07-13T13:43:46;4.55;;;2.42;;
23362;SDS011;11853;48.080;11.960;2023-07-13T13:46:16;3.63;;;2.50;;
23362;SDS011;11853;48.080;11.960;2023-07-13T13:48:49;3.55;;;2.40;;
23362;SDS011;11853;48.080;11.960;2023-07-13T13:51:18;5.03;;;2.33;;
23362;SDS011;11853;48.080;11.960;2023-07-13T13:53:47;2.65;;;2.03;;
23362;SDS011;11853;48.080;11.960;2023-07-13T13:56:16;3.92;;;2.13;;
23362;SDS011;11853;48.080;11.960;2023-07-13T13:58:43;5.30;;;2.25;;
23362;SDS011;11853;48.080;11.960;2023-07-13T14:01:13;4.30;;;2.22;;
23362;SDS011;11853;48.080;11.960;2023-07-13T14:03:43;2.90;;;1.80;;
23362;SDS011;11853;48.080;11.960;2023-07-13T14:06:12;2.35;;;1.77;;
23362;SDS011;11853;48.080;11.960;2023-07-13T14:08:40;2.40;;;2.08;;
23362;SDS011;11853;48.080;11.960;2023-07-13T14:11:07;3.40;;;2.00;;
23362;SDS011;11853;48.080;11.960;2023-07-13T14:13:38;1.97;;;1.77;;
23362;SDS011;11853;48.080;11.960;2023-07-13T14:16:11;1.70;;;1.58;;
23362;SDS011;11853;48.080;11.960;2023-07-13T14:18:40;2.78;;;2.42;;
23362;SDS011;11853;48.080;11.960;2023-07-13T14:21:16;1.90;;;1.77;;
23362;SDS011;11853;48.080;11.960;2023-07-13T14:23:44;2.28;;;1.90;;
23362;SDS011;11853;48.080;11.960;2023-07-13T14:26:18;2.10;;;1.67;;
23362;SDS011;11853;48.080;11.960;2023-07-13T14:28:49;5.03;;;1.92;;
23362;SDS011;11853;48.080;11.960;2023-07-13T14:31:17;2.72;;;1.90;;
23362;SDS011;11853;48.080;11.960;2023-07-13T14:33:43;2.92;;;1.75;;
23362;SDS011;11853;48.080;11.960;2023-07-13T14:36:28;3.50;;;1.83;;
23362;SDS011;11853;48.080;11.960;2023-07-13T14:38:57;2.67;;;1.70;;
23362;SDS011;11853;48.080;11.960;2023-07-13T14:41:24;3.83;;;1.52;;
23362;SDS011;11853;48.080;11.960;2023-07-13T14:43:50;2.15;;;1.95;;
23362;SDS011;11853;48.080;11.960;2023-07-13T14:46:29;2.58;;;1.60;;
23362;SDS011;11853;48.080;11.960;2023-07-13T14:49:03;2.13;;;1.88;;
23362;SDS011;11853;48.080;11.960;2023-07-13T14:51:31;3.03;;;2.03;;
23362;SDS011;11853;48.080;11.960;2023-07-13T14:54:01;1.55;;;1.45;;
23362;SDS011;11853;48.080;11.960;2023-07-13T14:56:28;2.25;;;1.80;;
23362;SDS011;11853;48.080;11.960;2023-07-13T14:58:54;1.98;;;1.75;;
23362;SDS011;11853;48.080;11.960;2023-07-13T15:01:20;2.47;;;2.15;;
23362;SDS011;11853;48.080;11.960;2023-07-13T15:03:48;1.83;;;1.65;;
23362;SDS011;11853;48.080;11.960;2023-07-13T15:06:15;1.73;;;1.63;;
23362;SDS011;11853;48.080;11.960;2023-07-13T15:08:42;2.38;;;2.03;;
23362;SDS011;11853;48.080;11.960;2023-07-13T15:11:08;2.67;;;1.85;;
23362;SDS011;11853;48.080;11.960;2023-07-13T15:13:37;1.80;;;1.65;;
23362;SDS011;11853;48.080;11.960;2023-07-13T15:16:23;4.32;;;1.73;;
23362;SDS011;11853;48.080;11.960;2023-07-13T15:18:50;2.10;;;1.83;;